KDYB

Summerville Airport

Summerville, South Carolina, USA
METAR KDYB 221535Z AUTO 14004KT 10SM SCT027 SCT033 SCT039 27/21 A3016 RMK AO1
Observed Flight Rules
May-22 @ 15:35 UTC (10 minutes ago) Visual Flight Rules
Wind Visibility Clouds
140° at 4 knots 10 miles
  • Scattered at 2,700' AGL
  • Scattered at 3,300' AGL
  • Scattered at 3,900' AGL
Temperatures Readings
Current 27°C / 81°F
Dewpoint 21°C / 70°F
Humidity 70%
Altimeter 30.16" Hg
Pressure 1021 hPa
Elevation 18
METAR KDYB 221535Z AUTO 14004KT 10SM SCT027 SCT033 SCT039 27/21 A3016 RMK AO1
Observed Flight Rules
May-22 @ 15:35 UTC
(10 minutes ago)
VFR
Wind Visibility
140° at 4 knots 10 miles
Clouds
  • Scattered at 2,700' AGL
  • Scattered at 3,300' AGL
  • Scattered at 3,900' AGL
Temperature Dewpoint
27°C / 81°F 21°C / 70°F
Humidity Altimeter Pressure
70% 30.16" Hg 1021 hPa